Time;durP1;ratioP1;P1;durP2;ratioP2;P2;SDS_P1;SDS_P2;PMS_P1;PMS_P2;Temp;Humidity;BMP_temperature;BMP_pressure;BME280_temperature;BME280_humidity;BME280_pressure;Samples;Min_cycle;Max_cycle;Signal;HPM_P1;HPM_P2
2022/12/22 03:27:35;;;;;;;4.33;3.40;;;1.10;99.90;1.40;96573.00;;;;4955333;28;21012;-87
2022/12/22 03:30:25;;;;;;;2.63;1.87;;;1.80;99.90;1.10;96586.00;;;;4948929;28;20420;-88
2022/12/22 03:33:14;;;;;;;3.00;2.80;;;1.60;99.90;1.20;96587.00;;;;4949621;28;20467;-88
2022/12/22 03:36:03;;;;;;;1.40;1.30;;;0.70;99.90;1.20;96579.00;;;;4991611;28;20424;-92
2022/12/22 03:38:52;;;;;;;2.83;2.13;;;0.90;99.90;1.40;96593.00;;;;5049229;28;20932;-90
2022/12/22 03:47:54;;;;;;;7.10;3.70;;;1.00;99.90;2.20;96609.00;;;;4951213;28;20423;-88
2022/12/22 03:50:44;;;;;;;5.47;3.60;;;1.40;99.90;2.00;96600.00;;;;4967643;28;20467;-87
2022/12/22 03:53:33;;;;;;;3.07;2.77;;;1.30;99.90;1.90;96593.00;;;;4957726;28;20440;-87
2022/12/22 03:56:22;;;;;;;3.73;2.70;;;1.30;99.90;1.80;96589.00;;;;4949538;28;20471;-89
2022/12/22 03:59:11;;;;;;;3.83;2.47;;;1.10;99.90;1.30;96579.00;;;;4948076;29;20443;-88
2022/12/22 04:02:00;;;;;;;3.90;2.70;;;1.00;99.90;1.20;96574.00;;;;4961293;28;20459;-89
2022/12/22 04:04:50;;;;;;;3.67;2.17;;;1.40;99.90;1.10;96593.00;;;;5011548;28;20422;-87
2022/12/22 04:07:39;;;;;;;4.17;3.07;;;1.20;99.90;1.30;96590.00;;;;4967604;28;20428;-87
2022/12/22 04:13:34;;;;;;;5.10;3.77;;;1.50;99.90;1.90;96593.00;;;;4952215;28;20491;-88
2022/12/22 04:16:22;;;;;;;3.77;2.83;;;0.80;99.90;1.50;96575.00;;;;4952590;28;20421;-87
2022/12/22 04:19:11;;;;;;;2.60;2.40;;;0.80;99.90;1.60;96579.00;;;;4955020;28;20819;-87
2022/12/22 04:22:02;;;;;;;4.50;3.37;;;0.90;99.90;1.60;96582.00;;;;4955656;28;20923;-88
2022/12/22 04:24:50;;;;;;;5.37;2.03;;;1.70;99.90;1.60;96561.00;;;;4952723;28;20475;-91
2022/12/22 04:27:39;;;;;;;4.53;3.30;;;1.60;99.90;1.90;96560.00;;;;4948851;28;20420;-87
2022/12/22 04:30:28;;;;;;;3.37;2.90;;;1.10;99.90;1.90;96562.00;;;;4994334;28;20442;-88
2022/12/22 04:33:17;;;;;;;5.93;2.87;;;2.70;99.90;1.90;96577.00;;;;4966996;28;20471;-87
2022/12/22 04:36:07;;;;;;;3.60;3.27;;;2.10;99.90;1.60;96569.00;;;;4986746;28;20438;-89
2022/12/22 04:39:11;;;;;;;4.33;3.33;;;1.10;99.90;1.30;96570.00;;;;5148250;27;21098;-64
2022/12/22 04:42:00;;;;;;;3.33;2.97;;;1.00;99.90;1.60;96576.00;;;;5128221;27;21007;-65
2022/12/22 04:44:48;;;;;;;3.97;2.47;;;0.90;99.90;1.40;96566.00;;;;5142537;27;20439;-65
2022/12/22 04:47:37;;;;;;;6.73;2.90;;;0.90;99.90;1.60;96564.00;;;;5146840;27;20455;-65
2022/12/22 04:50:26;;;;;;;3.87;3.30;;;0.80;99.90;1.70;96555.00;;;;5144388;27;20881;-65
2022/12/22 04:53:15;;;;;;;4.60;3.70;;;0.80;99.90;1.70;96561.00;;;;5145276;27;20931;-66
2022/12/22 04:56:07;;;;;;;3.30;3.00;;;0.80;99.90;1.70;96554.00;;;;5126639;27;20419;-65
2022/12/22 04:58:56;;;;;;;7.33;3.40;;;0.90;99.90;1.90;96554.00;;;;5124884;27;20529;-65
2022/12/22 05:01:45;;;;;;;4.07;3.50;;;0.90;99.90;1.90;96550.00;;;;5138529;27;20501;-65
2022/12/22 05:04:33;;;;;;;9.87;4.57;;;1.00;99.90;2.00;96555.00;;;;5143920;27;20438;-65
2022/12/22 05:07:22;;;;;;;3.87;3.57;;;1.00;99.90;1.30;96549.00;;;;5153457;27;20418;-65
2022/12/22 05:10:12;;;;;;;2.07;1.83;;;1.00;99.90;0.90;96551.00;;;;5155763;27;20431;-66
2022/12/22 05:13:02;;;;;;;3.80;3.03;;;0.70;99.90;0.70;96553.00;;;;5157683;27;20812;-65
2022/12/22 05:15:51;;;;;;;2.00;1.90;;;0.60;99.90;0.50;96541.00;;;;5159301;27;20447;-65
2022/12/22 05:18:42;;;;;;;4.10;3.47;;;0.40;99.90;0.70;96541.00;;;;5160058;27;20446;-64
2022/12/22 05:21:31;;;;;;;3.33;2.60;;;0.30;99.90;1.20;96536.00;;;;5157914;27;20426;-65
2022/12/22 05:24:19;;;;;;;5.40;4.00;;;0.30;99.90;1.30;96527.00;;;;5152469;27;20439;-65
2022/12/22 05:27:08;;;;;;;2.43;2.23;;;0.40;99.90;1.30;96526.00;;;;5161902;27;20445;-65
2022/12/22 05:29:58;;;;;;;3.73;3.43;;;0.40;99.90;1.30;96529.00;;;;5162147;27;20437;-65
2022/12/22 05:32:47;;;;;;;5.03;3.07;;;0.40;99.90;1.50;96523.00;;;;5165093;27;20483;-65
2022/12/22 05:35:36;;;;;;;6.33;4.40;;;0.60;99.90;1.00;96533.00;;;;5160514;27;20418;-65
2022/12/22 05:38:25;;;;;;;3.93;3.43;;;0.70;99.90;0.80;96530.00;;;;5149206;27;20595;-66
2022/12/22 05:41:14;;;;;;;3.87;3.13;;;0.50;99.90;0.90;96532.00;;;;5136246;27;20424;-65
2022/12/22 05:44:03;;;;;;;3.70;3.20;;;0.40;99.90;0.90;96532.00;;;;5146566;27;20451;-65
2022/12/22 05:46:53;;;;;;;1.00;1.00;;;0.30;99.90;0.40;96523.00;;;;5162455;27;20471;-66
2022/12/22 05:49:42;;;;;;;4.77;2.80;;;0.20;99.90;0.60;96537.00;;;;5156226;27;20460;-64
2022/12/22 05:52:30;;;;;;;2.93;1.97;;;0.10;99.90;0.50;96531.00;;;;5146557;27;21013;-65
2022/12/22 05:55:19;;;;;;;3.63;3.13;;;0.10;99.90;0.70;96540.00;;;;5151381;27;20444;-67
2022/12/22 05:58:08;;;;;;;2.60;2.17;;;0.10;99.90;0.70;96542.00;;;;5144963;27;20885;-66
2022/12/22 06:00:58;;;;;;;4.17;3.73;;;0.20;99.90;1.10;96545.00;;;;5147395;27;20479;-65
2022/12/22 06:03:48;;;;;;;8.27;3.37;;;0.30;99.90;1.30;96545.00;;;;5148355;27;20438;-65
2022/12/22 06:06:37;;;;;;;3.53;2.47;;;0.30;99.90;0.90;96538.00;;;;5140146;27;20429;-66
2022/12/22 06:09:26;;;;;;;4.00;3.30;;;0.30;99.90;1.10;96542.00;;;;5146635;27;20438;-65
2022/12/22 06:12:15;;;;;;;4.53;2.80;;;0.40;99.90;1.50;96539.00;;;;5141750;27;20500;-65
2022/12/22 06:15:05;;;;;;;3.53;2.70;;;0.50;99.90;1.60;96539.00;;;;5139610;27;20453;-65
2022/12/22 06:17:54;;;;;;;5.53;2.63;;;0.60;99.90;1.30;96535.00;;;;5140063;27;20459;-65
2022/12/22 06:20:46;;;;;;;2.17;2.07;;;0.60;99.90;1.10;96541.00;;;;5150746;27;20439;-65
2022/12/22 06:23:34;;;;;;;11.37;6.70;;;0.50;99.90;1.00;96552.00;;;;5144924;27;20447;-65
2022/12/22 06:26:23;;;;;;;10.40;5.67;;;0.60;99.90;0.90;96552.00;;;;5150527;27;20457;-65
2022/12/22 06:29:12;;;;;;;7.10;4.63;;;0.50;99.90;0.90;96548.00;;;;5146037;27;20864;-65
2022/12/22 06:32:00;;;;;;;3.70;3.37;;;0.50;99.90;0.90;96548.00;;;;5148721;27;20418;-65
2022/12/22 06:34:49;;;;;;;4.30;3.43;;;0.40;99.90;0.70;96558.00;;;;5151996;27;20431;-65
2022/12/22 06:37:39;;;;;;;9.23;3.90;;;0.30;99.90;0.90;96553.00;;;;5115567;27;20437;-65
2022/12/22 06:40:28;;;;;;;7.27;4.40;;;0.30;99.90;0.80;96553.00;;;;5089915;28;20429;-65
2022/12/22 06:43:16;;;;;;;5.10;3.87;;;0.40;99.90;1.10;96545.00;;;;5106990;27;20540;-65
2022/12/22 06:46:05;;;;;;;4.87;4.13;;;0.40;99.90;1.10;96542.00;;;;5101770;28;20786;-65
2022/12/22 06:48:53;;;;;;;4.07;3.13;;;0.40;99.90;0.90;96533.00;;;;5104964;28;20943;-65
2022/12/22 06:51:42;;;;;;;5.73;3.90;;;0.40;99.90;1.10;96528.00;;;;5094169;28;20825;-64
2022/12/22 06:54:32;;;;;;;5.43;3.47;;;0.30;99.90;1.00;96536.00;;;;5098269;28;20456;-65
2022/12/22 06:57:21;;;;;;;2.90;2.70;;;0.40;99.90;0.80;96547.00;;;;5100259;28;20510;-65
2022/12/22 07:00:11;;;;;;;5.53;3.33;;;0.40;99.90;0.50;96536.00;;;;5100057;28;20464;-65
2022/12/22 07:03:00;;;;;;;3.00;2.77;;;0.30;99.90;0.70;96549.00;;;;5098756;27;20494;-66
2022/12/22 07:05:48;;;;;;;1.60;1.50;;;0.10;99.90;0.40;96556.00;;;;5103732;28;20956;-65
2022/12/22 07:08:37;;;;;;;2.87;2.67;;;0.10;99.90;0.60;96544.00;;;;5108566;27;20423;-65
2022/12/22 07:11:28;;;;;;;5.37;4.10;;;0.00;99.90;1.00;96539.00;;;;5112397;27;20413;-65
2022/12/22 07:14:16;;;;;;;1.67;1.57;;;0.10;99.90;1.00;96551.00;;;;5092144;28;20928;-66
2022/12/22 07:17:05;;;;;;;6.40;3.30;;;0.40;99.90;1.10;96549.00;;;;5105740;27;20420;-65
2022/12/22 07:19:54;;;;;;;4.03;3.00;;;0.30;99.90;1.00;96542.00;;;;5102173;27;20844;-65
2022/12/22 07:22:42;;;;;;;4.10;3.63;;;0.30;99.90;0.90;96546.00;;;;5106483;27;20427;-65
2022/12/22 07:25:31;;;;;;;6.53;4.37;;;0.40;99.90;1.20;96549.00;;;;5102268;27;20503;-65
2022/12/22 07:28:21;;;;;;;8.00;5.27;;;0.50;99.90;1.10;96552.00;;;;5109142;28;20429;-65
2022/12/22 07:31:11;;;;;;;4.40;3.03;;;0.50;99.90;0.80;96547.00;;;;5109917;28;20533;-67
2022/12/22 07:34:00;;;;;;;8.90;6.23;;;0.40;99.90;0.60;96545.00;;;;5101337;27;20435;-65
2022/12/22 07:36:49;;;;;;;2.13;1.93;;;0.20;99.90;0.60;96544.00;;;;5101763;27;21024;-66
2022/12/22 07:39:37;;;;;;;1.07;1.03;;;0.10;99.90;0.50;96539.00;;;;5142288;27;20446;-66
2022/12/22 07:42:44;;;;;;;3.90;2.70;;;0.10;99.90;0.70;96538.00;;;;5121165;27;20420;-64
2022/12/22 07:45:35;;;;;;;8.43;4.63;;;0.20;99.90;1.00;96543.00;;;;5124370;27;20829;-65
2022/12/22 07:51:33;;;;;;;3.70;1.87;;;0.50;99.90;1.20;96540.00;;;;5130834;27;20431;-66
2022/12/22 07:54:22;;;;;;;9.87;6.60;;;0.50;99.90;1.60;96540.00;;;;5126726;27;21034;-64
2022/12/22 07:57:11;;;;;;;40.40;22.87;;;0.70;99.90;1.40;96545.00;;;;5131754;27;20430;-64
2022/12/22 07:59:59;;;;;;;18.27;11.50;;;0.70;99.90;1.20;96526.00;;;;5124028;27;20474;-64
2022/12/22 08:02:54;;;;;;;13.23;9.27;;;0.60;99.90;1.10;96532.00;;;;5124295;27;20412;-64
2022/12/22 08:05:44;;;;;;;10.13;9.00;;;0.40;99.90;1.10;96528.00;;;;5125289;27;20453;-65
2022/12/22 08:08:34;;;;;;;5.53;4.40;;;0.40;99.90;0.60;96532.00;;;;5130932;27;20440;-64
2022/12/22 08:11:23;;;;;;;4.67;2.90;;;0.30;99.90;0.50;96533.00;;;;5126965;27;20432;-65
2022/12/22 08:14:11;;;;;;;3.37;3.07;;;0.20;99.90;0.60;96533.00;;;;5133250;27;20439;-67
2022/12/22 08:17:00;;;;;;;3.83;2.93;;;0.20;99.90;0.70;96529.00;;;;5121868;27;20424;-67
2022/12/22 08:19:50;;;;;;;4.33;2.23;;;0.10;99.90;0.30;96527.00;;;;5108046;28;21056;-67
2022/12/22 08:22:39;;;;;;;6.50;4.80;;;0.10;99.90;0.70;96522.00;;;;5115446;27;20455;-65
2022/12/22 08:25:27;;;;;;;6.30;4.17;;;0.10;99.90;0.80;96529.00;;;;5127879;27;20485;-64
2022/12/22 08:28:17;;;;;;;5.17;4.67;;;0.20;99.90;1.10;96532.00;;;;5128243;27;20419;-65
2022/12/22 08:31:06;;;;;;;6.07;4.43;;;0.30;99.90;1.00;96530.00;;;;5125736;27;20441;-65
2022/12/22 08:33:57;;;;;;;4.27;3.43;;;0.30;99.90;0.90;96526.00;;;;5133200;27;20946;-66
2022/12/22 08:36:52;;;;;;;4.10;3.70;;;0.30;99.90;0.90;96525.00;;;;5115742;27;20405;-65
2022/12/22 08:39:43;;;;;;;2.60;2.27;;;0.30;99.90;1.00;96524.00;;;;5129825;28;20451;-66
2022/12/22 08:42:33;;;;;;;5.60;3.37;;;0.40;99.90;1.30;96513.00;;;;5113748;28;20961;-66
2022/12/22 08:45:22;;;;;;;4.80;4.30;;;0.60;99.90;1.50;96513.00;;;;5123192;28;20509;-65
2022/12/22 08:48:11;;;;;;;6.23;4.97;;;0.70;99.90;1.80;96513.00;;;;5121306;28;20886;-67
2022/12/22 08:50:59;;;;;;;6.13;4.67;;;0.80;99.90;1.60;96512.00;;;;5122451;28;20506;-67
2022/12/22 08:53:49;;;;;;;9.43;7.43;;;1.00;99.90;1.80;96514.00;;;;5119621;28;20435;-65
2022/12/22 08:56:54;;;;;;;5.93;4.67;;;1.10;99.90;1.90;96516.00;;;;5115916;28;20474;-65
2022/12/22 08:59:42;;;;;;;3.40;3.10;;;1.20;99.90;1.60;96510.00;;;;5124974;28;20461;-68
2022/12/22 09:02:32;;;;;;;5.90;5.23;;;1.20;99.90;1.80;96510.00;;;;5128664;28;20469;-66
2022/12/22 09:05:20;;;;;;;6.07;4.73;;;1.20;99.90;1.90;96512.00;;;;5129496;28;20804;-66
2022/12/22 09:08:09;;;;;;;3.93;3.57;;;1.20;99.90;1.80;96506.00;;;;5127278;28;20507;-66
2022/12/22 09:11:03;;;;;;;3.83;3.43;;;1.20;99.90;1.90;96504.00;;;;5115409;27;20476;-67
2022/12/22 09:13:54;;;;;;;37.87;21.87;;;1.40;99.90;2.30;96497.00;;;;5127492;27;20443;-66
2022/12/22 09:16:43;;;;;;;32.37;18.23;;;1.40;99.90;2.60;96490.00;;;;5109585;28;20427;-66
2022/12/22 09:19:32;;;;;;;14.60;7.80;;;1.60;99.90;3.00;96500.00;;;;5108418;28;20981;-66
2022/12/22 09:22:20;;;;;;;11.60;8.30;;;1.80;99.90;3.20;96498.00;;;;5113398;28;20424;-65
2022/12/22 09:25:16;;;;;;;12.20;9.30;;;2.10;99.90;3.00;96512.00;;;;5123490;27;20962;-65
2022/12/22 09:28:08;;;;;;;13.20;7.20;;;2.20;99.90;3.20;96500.00;;;;5123866;27;20424;-65
2022/12/22 09:30:57;;;;;;;15.63;10.77;;;2.30;99.90;3.20;96493.00;;;;5117928;27;20425;-66
2022/12/22 09:33:46;;;;;;;15.93;5.97;;;2.30;99.90;3.40;96476.00;;;;5118871;27;20454;-67
2022/12/22 09:36:35;;;;;;;17.27;11.53;;;2.40;99.90;3.80;96470.00;;;;5129679;27;20417;-65
2022/12/22 09:39:24;;;;;;;9.93;8.60;;;2.70;99.90;3.40;96462.00;;;;5130745;27;20442;-66
2022/12/22 09:42:19;;;;;;;21.93;13.10;;;2.60;99.90;3.20;96453.00;;;;5121163;27;20436;-66
2022/12/22 09:45:18;;;;;;;9.20;6.40;;;2.70;99.90;3.60;96453.00;;;;5123578;27;20455;-65
2022/12/22 09:48:11;;;;;;;6.20;5.60;;;2.70;99.90;3.70;96453.00;;;;5125119;27;20794;-67
2022/12/22 09:51:01;;;;;;;14.13;9.13;;;2.80;99.90;3.90;96448.00;;;;5117619;27;20432;-66
2022/12/22 09:53:57;;;;;;;12.17;7.90;;;3.00;99.90;4.50;96438.00;;;;5128318;27;20440;-67
2022/12/22 09:56:46;;;;;;;16.53;9.27;;;3.30;99.90;4.20;96446.00;;;;5113089;27;20433;-67
2022/12/22 09:59:36;;;;;;;16.03;9.57;;;3.40;99.90;3.90;96427.00;;;;5109756;28;20432;-65
2022/12/22 10:02:34;;;;;;;9.10;7.40;;;3.40;99.90;4.20;96432.00;;;;5132905;27;20520;-66
2022/12/22 10:05:37;;;;;;;9.47;7.63;;;3.30;99.90;4.60;96422.00;;;;5128206;27;20655;-66
2022/12/22 10:08:30;;;;;;;9.53;6.50;;;3.50;99.90;4.20;96425.00;;;;5126514;27;20425;-66
2022/12/22 10:11:19;;;;;;;12.73;9.37;;;3.60;99.90;4.30;96425.00;;;;5114511;27;20486;-65
2022/12/22 10:14:11;;;;;;;13.10;9.57;;;3.60;99.90;4.50;96423.00;;;;5126136;27;20536;-64
2022/12/22 10:17:21;;;;;;;15.50;9.70;;;3.60;99.90;4.30;96430.00;;;;5119901;27;20431;-66
2022/12/22 10:20:25;;;;;;;14.20;8.33;;;3.70;99.90;3.90;96415.00;;;;5124138;27;20456;-65
2022/12/22 10:23:19;;;;;;;10.00;7.13;;;3.50;99.90;4.30;96437.00;;;;5122442;27;20431;-66
2022/12/22 10:26:12;;;;;;;10.70;7.37;;;3.50;99.90;4.40;96416.00;;;;5113841;27;20472;-64
2022/12/22 10:29:17;;;;;;;12.40;8.57;;;3.50;99.90;4.70;96422.00;;;;5126195;27;21069;-65
2022/12/22 10:32:15;;;;;;;10.37;7.97;;;3.60;99.90;4.90;96410.00;;;;5117124;27;20985;-65
2022/12/22 10:35:07;;;;;;;12.53;8.03;;;3.80;99.90;4.70;96419.00;;;;5127656;27;20455;-65
2022/12/22 10:37:57;;;;;;;11.13;7.10;;;3.90;99.90;4.50;96405.00;;;;5125589;27;20916;-64
2022/12/22 10:40:49;;;;;;;10.63;7.83;;;3.90;99.90;4.40;96403.00;;;;5116796;27;20459;-64
2022/12/22 10:43:48;;;;;;;5.33;4.33;;;3.80;99.90;4.60;96406.00;;;;5131192;27;20959;-65
2022/12/22 10:46:41;;;;;;;8.57;5.23;;;3.80;99.90;4.50;96402.00;;;;5120717;27;20431;-63
2022/12/22 10:49:36;;;;;;;8.97;5.13;;;3.80;99.90;4.70;96389.00;;;;5122319;27;20780;-65
2022/12/22 10:52:26;;;;;;;5.77;5.17;;;3.90;99.90;4.60;96397.00;;;;5112177;27;20251;-65
2022/12/22 10:55:24;;;;;;;7.10;6.07;;;3.90;99.90;5.00;96386.00;;;;5121677;27;20455;-65
2022/12/22 10:58:20;;;;;;;10.70;6.83;;;4.00;99.90;5.30;96381.00;;;;5110174;28;21275;-65
2022/12/22 11:01:11;;;;;;;10.50;6.57;;;4.10;99.90;5.50;96357.00;;;;5125701;27;20226;-64
2022/12/22 11:04:17;;;;;;;9.17;6.17;;;4.20;99.90;5.30;96351.00;;;;5121562;27;20225;-65
2022/12/22 11:07:10;;;;;;;8.23;6.60;;;4.30;99.90;5.50;96337.00;;;;5123912;27;20453;-65
2022/12/22 11:09:59;;;;;;;7.73;6.23;;;4.40;99.90;6.00;96334.00;;;;5124186;27;20206;-64
2022/12/22 11:13:07;;;;;;;21.20;15.77;;;4.80;99.90;6.40;96336.00;;;;5131429;27;20694;-65
2022/12/22 11:16:02;;;;;;;5.57;4.60;;;5.20;99.90;6.30;96337.00;;;;5130464;27;20196;-65
2022/12/22 11:19:08;;;;;;;12.57;5.87;;;5.60;99.90;6.50;96329.00;;;;5115302;27;20190;-65
2022/12/22 11:22:04;;;;;;;7.77;5.50;;;5.70;99.90;7.10;96309.00;;;;5122489;27;20313;-65
2022/12/22 11:25:11;;;;;;;7.43;5.77;;;6.00;99.90;8.00;96297.00;;;;5128338;27;20205;-64
2022/12/22 11:28:17;;;;;;;16.27;7.30;;;6.60;99.90;8.00;96289.00;;;;5125394;27;20202;-67
2022/12/22 11:31:23;;;;;;;11.17;6.60;;;7.30;99.90;8.40;96301.00;;;;5124427;27;20201;-65
2022/12/22 11:34:27;;;;;;;8.17;4.83;;;7.70;99.90;8.10;96322.00;;;;5122076;27;20891;-67
2022/12/22 11:37:31;;;;;;;8.60;5.90;;;7.70;99.90;7.80;96317.00;;;;5126304;27;20206;-66
2022/12/22 11:40:32;;;;;;;8.77;6.13;;;7.40;99.90;8.30;96322.00;;;;5129712;27;20197;-64
2022/12/22 11:43:35;;;;;;;12.67;6.97;;;7.30;99.90;8.00;96307.00;;;;5130603;27;20707;-65
2022/12/22 11:46:31;;;;;;;11.20;7.10;;;7.20;99.90;8.00;96313.00;;;;5124895;27;20258;-65
2022/12/22 11:49:50;;;;;;;11.43;7.37;;;7.10;99.90;8.00;96302.00;;;;5127529;27;20209;-65
2022/12/22 11:53:01;;;;;;;8.33;5.93;;;7.00;99.90;6.90;96296.00;;;;5122178;27;20216;-67
2022/12/22 11:56:06;;;;;;;10.80;5.63;;;6.70;99.90;6.90;96304.00;;;;5125570;27;20198;-66
2022/12/22 11:59:20;;;;;;;10.93;7.13;;;6.50;99.90;7.30;96304.00;;;;5121006;27;20258;-65
2022/12/22 12:02:58;;;;;;;9.90;6.13;;;6.40;99.90;7.90;96263.00;;;;5126968;27;20252;-65
2022/12/22 12:06:15;;;;;;;8.77;5.87;;;6.40;99.90;8.60;96288.00;;;;5122890;27;20210;-65
2022/12/22 12:09:38;;;;;;;10.70;6.63;;;7.00;99.90;9.40;96281.00;;;;5133586;27;20676;-64
2022/12/22 12:12:39;;;;;;;10.13;6.57;;;7.50;99.90;9.70;96267.00;;;;5122698;27;20225;-65
2022/12/22 12:15:33;;;;;;;7.57;5.83;;;7.90;99.90;10.20;96266.00;;;;5125943;27;20233;-65
2022/12/22 12:18:41;;;;;;;12.40;6.23;;;8.40;99.90;11.10;96285.00;;;;5127823;27;20197;-65
2022/12/22 12:21:37;;;;;;;4.83;4.33;;;8.90;99.90;10.70;96278.00;;;;5126031;27;20253;-65
2022/12/22 12:24:48;;;;;;;7.07;5.00;;;9.20;99.90;10.50;96256.00;;;;5109038;27;20226;-65
2022/12/22 12:27:56;;;;;;;8.03;5.63;;;9.30;99.90;12.10;96246.00;;;;5128640;27;20201;-65
2022/12/22 12:30:55;;;;;;;8.37;5.93;;;9.80;99.90;12.10;96258.00;;;;5114989;27;20203;-66
2022/12/22 12:33:48;;;;;;;12.20;6.03;;;10.50;99.90;12.20;96258.00;;;;5128116;27;20237;-66
2022/12/22 12:36:44;;;;;;;7.00;5.50;;;10.80;99.90;12.30;96261.00;;;;5132076;27;20566;-65
2022/12/22 12:39:39;;;;;;;6.27;5.03;;;11.10;99.90;11.90;96304.00;;;;5128521;28;20242;-63
2022/12/22 12:42:33;;;;;;;7.07;4.70;;;11.00;99.90;10.90;96297.00;;;;5123136;28;20281;-65
2022/12/22 12:45:40;;;;;;;7.17;4.70;;;10.60;99.90;10.00;96288.00;;;;5120298;28;20272;-65
2022/12/22 12:48:42;;;;;;;9.13;5.23;;;10.00;99.90;9.60;96293.00;;;;5115920;28;20255;-65
2022/12/22 12:51:48;;;;;;;8.43;5.60;;;9.40;99.90;9.90;96293.00;;;;5128468;28;20272;-65
2022/12/22 12:54:42;;;;;;;11.33;5.63;;;9.10;99.90;10.00;96292.00;;;;5112441;28;20733;-65
2022/12/22 12:57:46;;;;;;;8.17;5.53;;;8.90;99.90;10.20;96303.00;;;;5116705;27;20617;-66
2022/12/22 13:00:47;;;;;;;16.03;5.43;;;8.80;99.90;10.20;96299.00;;;;5140576;27;20209;-64
2022/12/22 13:03:42;;;;;;;6.17;4.83;;;8.80;99.90;9.70;96304.00;;;;5125689;27;20213;-64
2022/12/22 13:06:53;;;;;;;9.40;5.17;;;8.70;99.90;10.00;96301.00;;;;5121798;27;20193;-65
2022/12/22 13:10:07;;;;;;;8.80;5.20;;;8.70;99.90;10.30;96302.00;;;;5133272;27;20198;-65
2022/12/22 13:12:57;;;;;;;9.70;5.13;;;8.60;99.90;10.30;96300.00;;;;5120677;27;20204;-64
2022/12/22 13:15:46;;;;;;;9.93;5.83;;;8.60;99.90;10.10;96307.00;;;;5118128;27;20674;-65
2022/12/22 13:18:44;;;;;;;7.90;4.90;;;8.60;99.90;10.10;96307.00;;;;5127081;27;20557;-64
2022/12/22 13:21:43;;;;;;;7.83;5.30;;;8.60;99.90;10.00;96319.00;;;;5124848;27;20728;-65
2022/12/22 13:24:45;;;;;;;8.50;4.67;;;8.50;99.90;9.80;96326.00;;;;5127177;27;20695;-65
2022/12/22 13:27:37;;;;;;;7.37;4.90;;;8.50;99.90;9.70;96338.00;;;;5143318;27;20190;-65
2022/12/22 13:30:30;;;;;;;31.50;16.60;;;8.40;99.90;9.00;96332.00;;;;5133080;27;20205;-65
2022/12/22 13:33:24;;;;;;;16.73;10.07;;;8.20;99.90;8.70;96338.00;;;;5127163;27;20722;-65
2022/12/22 13:36:19;;;;;;;15.43;9.90;;;7.90;99.90;9.10;96335.00;;;;5125888;27;20291;-65
2022/12/22 13:39:14;;;;;;;15.27;7.97;;;7.90;99.90;9.20;96334.00;;;;5115518;27;20205;-64
2022/12/22 13:42:06;;;;;;;15.30;7.00;;;7.80;99.90;9.30;96345.00;;;;5103149;28;20264;-65
2022/12/22 13:44:55;;;;;;;12.70;6.83;;;7.60;99.90;8.90;96348.00;;;;5111028;28;20214;-65
2022/12/22 13:47:45;;;;;;;12.30;6.20;;;7.70;99.90;9.10;96355.00;;;;5110942;28;20191;-65
2022/12/22 13:50:39;;;;;;;11.77;6.23;;;7.70;99.90;9.10;96360.00;;;;5111957;27;20243;-65
2022/12/22 13:53:34;;;;;;;9.57;6.43;;;7.60;99.90;8.90;96355.00;;;;5118050;27;20261;-65
2022/12/22 13:56:46;;;;;;;7.93;5.13;;;7.60;99.90;8.90;96360.00;;;;5121311;27;20215;-65
2022/12/22 13:59:39;;;;;;;9.93;5.93;;;7.50;99.90;9.10;96363.00;;;;5114674;27;20199;-64
2022/12/22 14:02:33;;;;;;;8.90;6.00;;;7.50;99.90;9.00;96366.00;;;;5119555;27;20278;-65
2022/12/22 14:05:22;;;;;;;10.87;5.37;;;7.50;99.90;9.00;96358.00;;;;5125695;27;20229;-65
2022/12/22 14:08:12;;;;;;;15.00;7.63;;;7.50;99.90;9.00;96368.00;;;;5113915;27;20252;-65
2022/12/22 14:11:02;;;;;;;7.47;5.77;;;7.40;99.90;8.70;96371.00;;;;5117300;27;20635;-65
2022/12/22 14:13:51;;;;;;;7.70;6.13;;;7.40;99.90;8.40;96364.00;;;;5106807;27;20240;-65
2022/12/22 14:16:44;;;;;;;8.20;6.17;;;7.30;99.90;8.60;96369.00;;;;5104158;27;20261;-65
2022/12/22 14:19:35;;;;;;;9.17;5.77;;;7.30;99.90;8.60;96370.00;;;;5112438;27;20202;-65
2022/12/22 14:22:27;;;;;;;11.30;6.97;;;7.20;99.90;8.30;96370.00;;;;5110739;28;20307;-65
2022/12/22 14:25:19;;;;;;;9.23;6.30;;;7.20;99.90;8.50;96378.00;;;;5117847;27;20659;-65
2022/12/22 14:28:19;;;;;;;9.37;6.17;;;7.10;99.90;8.50;96386.00;;;;5110979;27;20195;-66
2022/12/22 14:31:08;;;;;;;7.67;5.57;;;7.00;99.90;8.30;96392.00;;;;5095878;28;20200;-64
2022/12/22 14:34:04;;;;;;;7.73;6.27;;;7.00;99.90;8.20;96386.00;;;;5115757;27;20225;-64
2022/12/22 14:36:52;;;;;;;12.23;8.20;;;6.90;99.90;8.10;96388.00;;;;5115780;27;20322;-66
2022/12/22 14:39:41;;;;;;;15.90;7.37;;;6.80;99.90;8.10;96360.00;;;;5147839;27;20572;-65
2022/12/22 14:42:31;;;;;;;13.13;7.20;;;6.80;99.90;7.90;96363.00;;;;5121044;27;20334;-65
2022/12/22 14:45:21;;;;;;;10.80;6.83;;;6.70;99.90;7.60;96367.00;;;;5130915;27;20236;-65
2022/12/22 14:48:18;;;;;;;8.90;6.90;;;6.60;99.90;7.80;96368.00;;;;5126435;27;20194;-65
2022/12/22 14:51:07;;;;;;;9.97;7.17;;;6.50;99.90;7.80;96371.00;;;;5125156;27;20209;-65
2022/12/22 14:53:58;;;;;;;8.90;6.47;;;6.50;99.90;7.10;96363.00;;;;5122769;27;20221;-65
2022/12/22 14:56:49;;;;;;;8.83;6.23;;;6.30;99.90;7.20;96362.00;;;;5131014;27;20210;-65
2022/12/22 14:59:38;;;;;;;7.33;4.90;;;6.20;99.90;7.00;96359.00;;;;5130449;27;20198;-65
2022/12/22 15:02:32;;;;;;;9.33;6.53;;;6.00;99.90;6.40;96383.00;;;;5132027;27;20221;-65
2022/12/22 15:05:30;;;;;;;11.43;6.77;;;5.80;99.90;6.10;96398.00;;;;5119395;27;20226;-65
2022/12/22 15:08:37;;;;;;;9.40;6.67;;;5.60;99.90;6.50;96405.00;;;;5121202;27;20198;-64
2022/12/22 15:11:26;;;;;;;14.73;8.30;;;5.50;99.90;6.20;96422.00;;;;5119914;27;20198;-65
2022/12/22 15:14:19;;;;;;;19.10;8.93;;;5.40;99.90;6.30;96417.00;;;;5127023;27;20230;-65
2022/12/22 15:17:19;;;;;;;15.17;7.87;;;5.20;99.90;6.20;96419.00;;;;5104410;28;20209;-65
2022/12/22 15:20:18;;;;;;;13.30;8.50;;;5.20;99.90;6.20;96423.00;;;;5110297;28;20202;-65
2022/12/22 15:23:13;;;;;;;16.23;8.63;;;5.10;99.90;5.90;96427.00;;;;5119445;27;20263;-65
2022/12/22 15:26:01;;;;;;;8.93;6.50;;;5.00;99.90;5.90;96434.00;;;;5136619;27;20197;-65
2022/12/22 15:28:50;;;;;;;12.63;7.03;;;4.90;99.90;5.90;96445.00;;;;5132023;27;20206;-64
2022/12/22 15:31:41;;;;;;;11.17;6.60;;;4.80;99.90;5.80;96433.00;;;;5121530;27;20237;-65
2022/12/22 15:34:32;;;;;;;10.13;7.40;;;4.70;99.90;5.70;96434.00;;;;5138453;27;20249;-65
2022/12/22 15:37:22;;;;;;;10.97;8.03;;;4.60;99.90;5.60;96436.00;;;;5122817;27;20213;-64
2022/12/22 15:40:19;;;;;;;12.27;7.23;;;4.60;99.90;5.50;96434.00;;;;5126020;27;20255;-65
2022/12/22 15:43:08;;;;;;;12.55;8.05;;;4.50;99.90;5.40;96431.00;;;;5128392;27;20305;-64
2022/12/22 15:46:06;;;;;;;12.10;6.67;;;4.40;99.90;5.20;96446.00;;;;5114883;27;20252;-64
2022/12/22 15:48:55;;;;;;;8.10;5.27;;;4.30;99.90;5.10;96464.00;;;;5120867;27;20209;-64
2022/12/22 15:51:45;;;;;;;14.80;8.07;;;4.20;99.90;4.70;96467.00;;;;5121970;27;20629;-65
2022/12/22 15:54:36;;;;;;;12.17;8.57;;;4.00;99.90;4.30;96475.00;;;;5125865;27;20230;-65
2022/12/22 15:57:25;;;;;;;13.53;8.27;;;3.80;99.90;4.10;96490.00;;;;5128893;27;20198;-64
2022/12/22 16:00:15;;;;;;;9.23;7.30;;;3.70;99.90;4.40;96505.00;;;;5134037;27;20448;-65
2022/12/22 16:03:04;;;;;;;14.80;12.53;;;3.60;99.90;4.70;96505.00;;;;5118197;27;20233;-64
2022/12/22 16:05:54;;;;;;;9.70;6.20;;;3.60;99.90;4.60;96502.00;;;;5129415;27;20191;-64
2022/12/22 16:08:48;;;;;;;9.87;5.53;;;3.60;99.90;4.70;96511.00;;;;5129056;27;20197;-65
2022/12/22 16:11:39;;;;;;;10.03;6.93;;;3.60;99.90;4.90;96516.00;;;;5112625;27;20424;-65
2022/12/22 16:14:28;;;;;;;15.23;7.90;;;3.70;99.90;4.90;96522.00;;;;5129588;27;20709;-65
2022/12/22 16:17:22;;;;;;;20.37;13.17;;;3.70;99.90;4.70;96520.00;;;;5127363;27;20202;-64
2022/12/22 16:20:12;;;;;;;16.90;9.50;;;3.60;99.90;4.60;96523.00;;;;5119602;27;20755;-65
2022/12/22 16:23:02;;;;;;;9.20;6.20;;;3.60;99.90;4.60;96532.00;;;;5130281;27;20643;-65
2022/12/22 16:25:53;;;;;;;8.87;5.43;;;3.50;99.90;4.50;96528.00;;;;5128290;27;20445;-64
2022/12/22 16:28:46;;;;;;;10.73;6.13;;;3.50;99.90;4.30;96518.00;;;;5128335;27;20657;-64
2022/12/22 16:31:35;;;;;;;12.33;7.20;;;3.60;99.90;4.40;96540.00;;;;5127600;27;20421;-65
2022/12/22 16:34:23;;;;;;;11.57;6.37;;;5.30;99.90;4.40;96534.00;;;;5144649;27;20612;-64
2022/12/22 16:37:12;;;;;;;10.53;7.17;;;3.40;99.90;4.20;96533.00;;;;5119045;27;20704;-66
2022/12/22 16:40:01;;;;;;;6.33;4.57;;;3.40;99.90;3.70;96527.00;;;;5119606;27;21007;-66
2022/12/22 16:42:58;;;;;;;8.63;5.53;;;3.20;99.90;3.80;96518.00;;;;5141127;27;20476;-66